Aérodrome :
LOGIN :

S'inscrire | Disclaimer

   EN    FR    IT 

 










Légende :    VFR   VFR Marginal   IFR   IFR Intensif   IFR Très Intensif
Visi : 
Plafond : 
>= 8 km
>= 3000ft
5 à 8 km
1000 à 3000 ft
1500m à 5 km
500 à 1000 ft
800 à 1500m
200 à 500 ft
< 800m
< 200 ft
Symboles :   Orages  Brouillard  Fortes neiges  Fortes précipitations  Vent > 20 kt
SIGMETs :   Divers  Orages  Givrage  Turbulence  Onde Orograph.  Cendres Volcan.






- Altitude de l'aérodrome : 468 ft
- Code IATA : GRO


LEGE - Girona Costa Brava

DERNIER METAR :
  • 130830Z 27007KT 230V330 9999 FEW030 13/07 Q0997

METARs EXPIRÉS :
  • 130800Z 28007KT 9999 FEW030 13/07 Q0998
  • 130730Z 27003KT 9999 FEW030 11/06 Q0997
  • 130700Z 10005KT 070V150 9999 FEW030 10/06 Q0997
  • 130630Z 32006KT 260V040 CAVOK 12/06 Q0998
  • 130600Z 01003KT CAVOK 10/05 Q0996

TAF TAF LEGE
Valide du 13 à 06h jusqu'au 14 à 06h UTC


130500Z 1306/1406 VRB04KT 9999 SCT060 TX19/1313Z TN05/1306Z
PROB40
TEMPO 1306/1313 VRB10G21KT



MET'MAP, la Météo Aéronautique d'un coup d'oeil ! - Copyright ORBIFLY Décembre 2007 - Disclaimer

ORBIFLY MET'MAP TEAM :

Programmation & Développement : Alexandra Zaïnal
Sur une idée originale de : Baudouin d'Aumeries
Assistance à la programmation : Marc-Olivier Méhu
Soutien technique & logistique : Manuel Goepfert

Contact : metmap@orbifly.com




SOURCES & CREDITS :

   NOAA